METAR Data
IDs: Format: Raw Decoded Include TAF

Data at: 1350 UTC 07 Jul 2020

KVEL 071253Z AUTO 27005KT 10SM CLR 17/02 A2999 RMK AO2 SLP077 T01670017
KVEL 071153Z AUTO 27004KT 10SM CLR 14/01 A2999 RMK AO2 SLP079 T01390011 10228 20133 53007
KVEL 071053Z AUTO 30004KT 10SM CLR 18/M01 A2997 RMK AO2 SLP069 T01781011
KVEL 070953Z AUTO 26003KT 10SM CLR 17/02 A2997 RMK AO2 SLP069 T01670017
KVEL 070853Z AUTO 26003KT 10SM CLR 18/02 A2996 RMK AO2 SLP065 T01780022 52001
KVEL 070753Z AUTO 27006KT 10SM CLR 21/02 A2996 RMK AO2 SLP063 T02060022
KVEL 070653Z AUTO 29005KT 10SM CLR 22/02 A2996 RMK AO2 SLP063 T02220022 403610144
KVEL 070553Z AUTO 29003KT 10SM CLR 23/02 A2996 RMK AO2 SLP065 T02330017 10356 20228 51006
KVEL 070453Z AUTO 00000KT 10SM CLR 24/M01 A2995 RMK AO2 SLP060 T02441006
KVEL 070353Z AUTO 27005KT 10SM CLR 23/05 A2995 RMK AO2 SLP064 T02330050
KVEL 070253Z AUTO 29005KT 10SM CLR 27/04 A2994 RMK AO2 SLP056 T02720039 56008
KVEL 070153Z AUTO 03005KT 10SM CLR 33/M03 A2994 RMK AO2 SLP055 T03331033
KVEL 070053Z AUTO 00000KT 10SM CLR 35/M04 A2995 RMK AO2 SLP059 T03501044
KVEL 062353Z AUTO VRB04KT 10SM CLR 36/M06 A2997 RMK AO2 SLP070 T03561061 10361 20300 56018
KVEL 062253Z AUTO 23006G18KT 10SM CLR 36/M04 A2999 RMK AO2 SLP074 T03561039
KVEL 062153Z AUTO 27008KT 10SM CLR 35/M05 A3001 RMK AO2 SLP085 T03501050
KVEL 062053Z AUTO 23008G15KT 10SM CLR 35/M06 A3003 RMK AO2 SLP093 T03501056 58019
KVEL 061953Z AUTO 22007KT 10SM CLR 34/M04 A3005 RMK AO2 SLP100 T03391044
KVEL 061853Z AUTO 21005KT 10SM CLR 32/M02 A3008 RMK AO2 SLP115 T03171017
KVEL 061753Z AUTO 20004KT 10SM CLR 30/M01 A3010 RMK AO2 SLP111 T03001006 10311 20156 58002
KVEL 061653Z AUTO VRB04KT 10SM CLR 29/M03 A3011 RMK AO2 SLP118 T02941033
KVEL 061553Z AUTO 15004KT 10SM CLR 28/01 A3010 RMK AO2 SLP112 T02780011
KVEL 061453Z AUTO 00000KT 10SM CLR 27/00 A3010 RMK AO2 SLP113 T02670000 50003
KVEL 061353Z AUTO 34005KT 10SM CLR 23/00 A3011 RMK AO2 SLP111 T02330000
KVEL 061253Z AUTO 32006KT 10SM CLR 19/M01 A3010 RMK AO2 SLP113 T01941011
KVEL 061153Z AUTO 29006KT 10SM CLR 16/M01 A3009 RMK AO2 SLP114 T01611011 10244 20144 53008
KVEL 061053Z AUTO 30004KT 10SM CLR 17/M02 A3008 RMK AO2 SLP106 T01721017
KVEL 060953Z AUTO 30003KT 10SM CLR 16/M01 A3007 RMK AO2 SLP106 T01611006
KVEL 060853Z AUTO 28005KT 10SM CLR 16/02 A3006 RMK AO2 SLP104 T01560022 53003
KVEL 060753Z AUTO 26003KT 10SM CLR 17/03 A3006 RMK AO2 SLP101 T01670033
KVEL 060653Z AUTO 29005KT 10SM CLR 16/04 A3005 RMK AO2 SLP106 T01610039 403560144
KVEL 060553Z AUTO 06003KT 10SM CLR 24/M01 A3005 RMK AO2 SLP096 T02441011 10350 20211 51015
KVEL 060453Z AUTO 00000KT 10SM CLR 21/01 A3004 RMK AO2 SLP099 T02110006
KVEL 060353Z AUTO 34008KT 10SM CLR 28/M01 A3003 RMK AO2 SLP086 T02781006
KVEL 060253Z AUTO 33007KT 10SM CLR 28/M02 A3000 RMK AO2 SLP081 T02781022 53002
KVEL 060153Z AUTO 28007KT 10SM CLR 33/M04 A3000 RMK AO2 SLP075 T03281039